Time;durP1;ratioP1;P1;durP2;ratioP2;P2;SDS_P1;SDS_P2;PMS_P1;PMS_P2;Temp;Humidity;BMP_temperature;BMP_pressure;BME280_temperature;BME280_humidity;BME280_pressure;Samples;Min_cycle;Max_cycle;Signal;HPM_P1;HPM_P2
2022/08/26 00:00:33;;;;;;;;;;;;;;;21.01;59.14;100373.50;5070866;28;20599;-84
2022/08/26 00:03:36;;;;;;;;;;;;;;;21.00;59.04;100371.84;5071044;28;19939;-84
2022/08/26 00:06:40;;;;;;;;;;;;;;;20.91;59.47;100376.22;5070831;28;20005;-83
2022/08/26 00:09:43;;;;;;;;;;;;;;;20.87;59.54;100383.66;5070148;28;19966;-84
2022/08/26 00:12:47;;;;;;;;;;;;;;;20.65;60.15;100387.59;5072565;28;19923;-83
2022/08/26 00:15:50;;;;;;;;;;;;;;;20.74;59.46;100377.03;5071293;28;20026;-83
2022/08/26 00:18:53;;;;;;;;;;;;;;;20.78;59.41;100375.75;5072199;28;20397;-83
2022/08/26 00:21:57;;;;;;;;;;;;;;;20.68;60.01;100378.47;5071252;28;19928;-83
2022/08/26 00:24:59;;;;;;;;;;;;;;;20.67;59.94;100379.44;5071823;28;19924;-83
2022/08/26 00:28:03;;;;;;;;;;;;;;;20.64;59.94;100375.28;5072753;28;20003;-83
2022/08/26 00:31:06;;;;;;;;;;;;;;;20.55;60.07;100377.97;5071263;28;20003;-82
2022/08/26 00:34:10;;;;;;;;;;;;;;;20.57;60.03;100376.84;5072281;28;20418;-83
2022/08/26 00:37:14;;;;;;;;;;;;;;;20.67;59.55;100374.13;5068987;28;19970;-82
2022/08/26 00:40:20;;;;;;;;;;;;;;;20.61;59.41;100380.03;5070582;28;20594;-83
2022/08/26 00:43:24;;;;;;;;;;;;;;;20.62;58.97;100374.59;5069996;28;19924;-84
2022/08/26 00:46:32;;;;;;;;;;;;;;;20.67;58.68;100374.97;5069684;28;19939;-84
2022/08/26 00:49:43;;;;;;;;;;;;;;;20.52;59.61;100380.97;5070018;28;19969;-83
2022/08/26 00:52:46;;;;;;;;;;;;;;;20.40;60.51;100382.94;5069714;28;19923;-84
2022/08/26 00:55:58;;;;;;;;;;;;;;;20.37;60.31;100376.09;5069023;28;20023;-84
2022/08/26 00:59:05;;;;;;;;;;;;;;;20.35;59.72;100380.69;5069763;28;19924;-84
2022/08/26 01:02:08;;;;;;;;;;;;;;;20.35;60.10;100385.19;5070329;28;20418;-84
2022/08/26 01:05:12;;;;;;;;;;;;;;;20.35;60.57;100379.88;5072149;28;19979;-84
2022/08/26 01:08:15;;;;;;;;;;;;;;;20.33;60.68;100376.53;5073344;28;19965;-84
2022/08/26 01:11:19;;;;;;;;;;;;;;;20.29;60.44;100375.97;5072281;28;19950;-84
2022/08/26 01:14:24;;;;;;;;;;;;;;;20.28;60.33;100376.13;5070257;28;19947;-84
2022/08/26 01:17:27;;;;;;;;;;;;;;;20.25;60.60;100376.44;5069095;28;19927;-85
2022/08/26 01:20:39;;;;;;;;;;;;;;;20.24;60.72;100380.06;5069719;28;19923;-84
2022/08/26 01:23:45;;;;;;;;;;;;;;;20.11;60.85;100378.56;5069496;28;20387;-84
2022/08/26 01:26:48;;;;;;;;;;;;;;;20.15;60.71;100374.63;5069488;28;19927;-84
2022/08/26 01:29:52;;;;;;;;;;;;;;;20.13;60.84;100376.63;5070213;28;20338;-84
2022/08/26 01:32:56;;;;;;;;;;;;;;;19.96;61.59;100372.06;5069818;28;20777;-83
2022/08/26 01:35:59;;;;;;;;;;;;;;;19.95;61.77;100378.34;5069154;28;20615;-83
2022/08/26 01:39:02;;;;;;;;;;;;;;;19.94;61.62;100379.31;5069143;28;19923;-83
2022/08/26 01:42:08;;;;;;;;;;;;;;;19.89;61.62;100386.88;5069611;28;20415;-84
2022/08/26 01:45:14;;;;;;;;;;;;;;;19.87;61.78;100381.72;5069730;28;19924;-84
2022/08/26 01:48:19;;;;;;;;;;;;;;;19.91;62.00;100384.91;5069169;28;19923;-84
2022/08/26 01:51:23;;;;;;;;;;;;;;;19.81;62.47;100384.94;5069707;28;19927;-84
2022/08/26 01:54:27;;;;;;;;;;;;;;;19.82;62.59;100394.59;5069619;28;19939;-85
2022/08/26 01:57:30;;;;;;;;;;;;;;;19.67;62.68;100391.53;5068494;28;20445;-84
2022/08/26 02:00:34;;;;;;;;;;;;;;;19.67;62.53;100396.84;5056711;28;19946;-84
2022/08/26 02:03:42;;;;;;;;;;;;;;;19.68;62.00;100403.81;5068917;28;19979;-85
2022/08/26 02:06:45;;;;;;;;;;;;;;;19.73;61.91;100408.69;5069080;28;19924;-85
2022/08/26 02:09:48;;;;;;;;;;;;;;;19.77;61.60;100407.44;5067456;28;19966;-85
2022/08/26 02:12:52;;;;;;;;;;;;;;;19.59;61.99;100402.00;5069346;28;20284;-85
2022/08/26 02:15:55;;;;;;;;;;;;;;;19.65;61.98;100412.03;5068263;28;20479;-84
2022/08/26 02:18:59;;;;;;;;;;;;;;;19.59;62.12;100415.25;5069424;28;19924;-83
2022/08/26 02:22:04;;;;;;;;;;;;;;;19.62;62.06;100416.78;5068778;28;19924;-84
2022/08/26 02:25:16;;;;;;;;;;;;;;;19.58;62.11;100418.88;5068720;28;19941;-83
2022/08/26 02:28:19;;;;;;;;;;;;;;;19.57;62.04;100417.19;5066896;28;19982;-85
2022/08/26 02:31:22;;;;;;;;;;;;;;;19.56;62.11;100415.53;5068779;28;19923;-85
2022/08/26 02:34:27;;;;;;;;;;;;;;;19.56;62.58;100415.53;5067580;28;19970;-85
2022/08/26 02:37:31;;;;;;;;;;;;;;;19.42;63.36;100426.56;5068019;28;19971;-85
2022/08/26 02:40:35;;;;;;;;;;;;;;;19.34;63.93;100421.97;5068913;28;19978;-84
2022/08/26 02:43:38;;;;;;;;;;;;;;;19.32;63.85;100423.06;5068775;28;19963;-85
2022/08/26 02:46:41;;;;;;;;;;;;;;;19.35;63.53;100430.75;5068394;28;20315;-85
2022/08/26 02:49:45;;;;;;;;;;;;;;;19.26;63.91;100425.28;5068597;28;19927;-85
2022/08/26 02:52:47;;;;;;;;;;;;;;;19.32;63.93;100425.72;5068636;28;19958;-84
2022/08/26 02:55:50;;;;;;;;;;;;;;;19.25;64.27;100423.63;5069279;28;20429;-85
2022/08/26 02:58:53;;;;;;;;;;;;;;;19.16;64.37;100424.44;5068909;28;19923;-85
2022/08/26 03:01:56;;;;;;;;;;;;;;;19.05;64.69;100422.78;5071109;28;20003;-84
2022/08/26 03:04:59;;;;;;;;;;;;;;;19.12;64.50;100425.72;5071880;28;20031;-84
2022/08/26 03:08:03;;;;;;;;;;;;;;;19.16;64.43;100415.66;5071817;28;19919;-85
2022/08/26 03:11:06;;;;;;;;;;;;;;;19.10;64.42;100418.88;5071923;28;19924;-83
2022/08/26 03:14:09;;;;;;;;;;;;;;;18.94;65.02;100420.22;5072042;28;20001;-84
2022/08/26 03:17:12;;;;;;;;;;;;;;;19.07;64.57;100414.66;5071801;28;20024;-83
2022/08/26 03:20:15;;;;;;;;;;;;;;;19.00;64.90;100418.84;5071547;28;19931;-84
2022/08/26 03:23:19;;;;;;;;;;;;;;;18.99;64.82;100418.03;5071095;28;20004;-85
2022/08/26 03:26:22;;;;;;;;;;;;;;;19.02;64.63;100420.41;5071552;28;20345;-84
2022/08/26 03:32:48;;;;;;;;;;;;;;;18.97;64.84;100422.59;5071034;28;20567;-84
2022/08/26 03:35:52;;;;;;;;;;;;;;;19.02;64.79;100416.91;5070921;28;20507;-85
2022/08/26 03:38:55;;;;;;;;;;;;;;;18.97;64.76;100416.47;5071303;28;19924;-84
2022/08/26 03:41:58;;;;;;;;;;;;;;;18.80;65.39;100424.13;5072539;28;20418;-84
2022/08/26 03:45:02;;;;;;;;;;;;;;;18.78;65.52;100423.41;5071453;28;19923;-84
2022/08/26 03:48:05;;;;;;;;;;;;;;;18.79;65.36;100414.50;5071091;28;19919;-84
2022/08/26 03:51:13;;;;;;;;;;;;;;;18.60;66.29;100427.63;5071130;28;19966;-83
2022/08/26 03:54:16;;;;;;;;;;;;;;;18.53;66.66;100426.50;5070485;28;19915;-84
2022/08/26 03:57:19;;;;;;;;;;;;;;;18.40;66.07;100432.00;5066467;28;20294;-85
2022/08/26 04:00:22;;;;;;;;;;;;;;;18.41;66.85;100427.56;5091119;28;19922;-84
2022/08/26 04:07:19;;;;;;;;;;;;;;;18.62;66.40;100424.84;5090459;28;20028;-85
2022/08/26 04:10:23;;;;;;;;;;;;;;;18.55;66.46;100429.84;5089842;28;19989;-85
2022/08/26 04:13:26;;;;;;;;;;;;;;;18.73;66.14;100433.59;5069368;28;19923;-85
2022/08/26 04:16:31;;;;;;;;;;;;;;;18.69;66.14;100431.28;5070372;28;19927;-83
2022/08/26 04:19:34;;;;;;;;;;;;;;;18.74;65.49;100426.47;5069277;28;19931;-86
2022/08/26 04:22:38;;;;;;;;;;;;;;;18.62;66.39;100431.00;5070610;28;19919;-87
2022/08/26 04:25:42;;;;;;;;;;;;;;;18.66;66.22;100419.16;5069931;28;20307;-85
2022/08/26 04:28:46;;;;;;;;;;;;;;;18.47;67.25;100416.44;5070599;28;19966;-79
2022/08/26 04:31:49;;;;;;;;;;;;;;;18.28;67.63;100422.47;5070542;28;20394;-80
2022/08/26 04:34:52;;;;;;;;;;;;;;;18.13;68.40;100409.63;5069571;28;20027;-81
2022/08/26 04:37:56;;;;;;;;;;;;;;;18.17;68.79;100425.22;5084625;28;19982;-80
2022/08/26 04:40:59;;;;;;;;;;;;;;;18.11;68.68;100423.94;5074466;28;20403;-81
2022/08/26 04:44:05;;;;;;;;;;;;;;;18.19;68.62;100424.13;5069883;28;20287;-82
2022/08/26 04:47:08;;;;;;;;;;;;;;;17.97;69.24;100422.47;5069362;28;19927;-81
2022/08/26 04:50:12;;;;;;;;;;;;;;;17.87;69.27;100429.53;5085645;28;19958;-80
2022/08/26 04:53:15;;;;;;;;;;;;;;;17.87;69.58;100430.34;5090388;28;19946;-80
2022/08/26 04:56:18;;;;;;;;;;;;;;;17.71;70.21;100437.88;5089840;28;20433;-80
2022/08/26 04:59:21;;;;;;;;;;;;;;;17.54;70.78;100433.13;5089867;28;19923;-81
2022/08/26 05:02:27;;;;;;;;;;;;;;;17.63;70.62;100441.13;5077530;28;20007;-80
2022/08/26 05:05:30;;;;;;;;;;;;;;;17.82;69.95;100443.13;5090043;28;19914;-83
2022/08/26 05:08:33;;;;;;;;;;;;;;;17.70;70.74;100444.09;5090195;28;19927;-77
2022/08/26 05:11:37;;;;;;;;;;;;;;;17.83;70.32;100449.25;5089822;28;19969;-81
2022/08/26 05:14:40;;;;;;;;;;;;;;;17.75;70.40;100447.22;5089498;28;19923;-82
2022/08/26 05:17:43;;;;;;;;;;;;;;;17.84;70.37;100453.59;5089227;28;19965;-82
2022/08/26 05:20:47;;;;;;;;;;;;;;;17.81;70.57;100452.03;5089639;28;19965;-81
2022/08/26 05:23:51;;;;;;;;;;;;;;;18.00;69.93;100459.25;5088978;28;19985;-83
2022/08/26 05:26:54;;;;;;;;;;;;;;;18.23;68.17;100452.00;5089463;28;20244;-83
2022/08/26 05:29:57;;;;;;;;;;;;;;;18.27;68.19;100449.94;5090027;28;19977;-82
2022/08/26 05:33:00;;;;;;;;;;;;;;;18.17;68.77;100457.00;5089357;28;20299;-82
2022/08/26 05:36:15;;;;;;;;;;;;;;;18.22;68.63;100449.47;5089281;28;19978;-83
2022/08/26 05:39:20;;;;;;;;;;;;;;;18.28;69.00;100457.75;5089389;28;20016;-81
2022/08/26 05:42:23;;;;;;;;;;;;;;;18.23;69.72;100472.34;5089109;28;20287;-83
2022/08/26 05:45:26;;;;;;;;;;;;;;;18.41;69.29;100469.91;5088522;28;20339;-80
2022/08/26 05:48:29;;;;;;;;;;;;;;;18.71;67.60;100466.44;5088535;28;20391;-82
2022/08/26 05:51:33;;;;;;;;;;;;;;;18.26;68.98;100467.63;5089164;28;19945;-78
2022/08/26 05:54:37;;;;;;;;;;;;;;;18.14;69.53;100468.66;5089257;28;19985;-73
2022/08/26 05:57:41;;;;;;;;;;;;;;;18.33;68.90;100463.47;5088870;28;20406;-81
2022/08/26 06:00:44;;;;;;;;;;;;;;;18.12;70.04;100475.88;5088974;28;20406;-77
2022/08/26 06:03:50;;;;;;;;;;;;;;;18.18;69.94;100475.38;5088765;28;19965;-78
2022/08/26 06:06:53;;;;;;;;;;;;;;;18.51;68.48;100476.13;5088576;28;19969;-76
2022/08/26 06:09:56;;;;;;;;;;;;;;;18.51;68.29;100474.31;5088428;28;19954;-78
2022/08/26 06:13:00;;;;;;;;;;;;;;;18.44;68.58;100467.88;5088461;28;19977;-76
2022/08/26 06:16:05;;;;;;;;;;;;;;;18.65;67.78;100472.25;5087680;28;19927;-77
2022/08/26 06:19:11;;;;;;;;;;;;;;;18.77;67.01;100469.41;5088388;28;20598;-79
2022/08/26 06:25:38;;;;;;;;;;;;;;;18.30;69.78;100473.50;5088359;28;20431;-81
2022/08/26 06:28:42;;;;;;;;;;;;;;;18.70;68.35;100476.19;5087636;28;19923;-82
2022/08/26 06:31:45;;;;;;;;;;;;;;;18.89;67.55;100470.16;5088910;28;19923;-82
2022/08/26 06:34:49;;;;;;;;;;;;;;;19.10;66.35;100480.66;5089997;28;20398;-82
2022/08/26 06:37:54;;;;;;;;;;;;;;;19.05;66.64;100485.53;5092453;28;19998;-82
2022/08/26 06:40:59;;;;;;;;;;;;;;;18.83;67.92;100480.47;5092795;28;19939;-81
2022/08/26 06:44:05;;;;;;;;;;;;;;;18.44;69.04;100486.41;5094508;28;20045;-80
2022/08/26 06:47:08;;;;;;;;;;;;;;;18.57;69.13;100480.88;5079254;28;20012;-77
2022/08/26 06:50:11;;;;;;;;;;;;;;;18.68;69.10;100479.94;5072275;28;20033;-81
2022/08/26 06:53:14;;;;;;;;;;;;;;;18.61;69.31;100482.28;5071847;28;20066;-76
2022/08/26 06:56:19;;;;;;;;;;;;;;;19.01;67.78;100478.81;5071714;28;20020;-76
2022/08/26 06:59:22;;;;;;;;;;;;;;;19.20;67.20;100481.50;5071896;28;19924;-79
2022/08/26 07:02:25;;;;;;;;;;;;;;;19.16;67.29;100477.47;5081520;28;20000;-72
2022/08/26 07:05:28;;;;;;;;;;;;;;;19.18;67.25;100470.22;5092792;28;19926;-71
2022/08/26 07:08:31;;;;;;;;;;;;;;;19.35;66.94;100475.81;5089624;28;19923;-73
2022/08/26 07:11:38;;;;;;;;;;;;;;;19.32;67.79;100476.94;5074482;28;19971;-72
2022/08/26 07:14:41;;;;;;;;;;;;;;;19.62;66.99;100473.34;5071403;28;19970;-80
2022/08/26 07:17:44;;;;;;;;;;;;;;;19.86;66.33;100474.72;5082240;28;19927;-80
2022/08/26 07:20:47;;;;;;;;;;;;;;;20.09;66.68;100473.44;5072017;28;19962;-81
2022/08/26 07:23:51;;;;;;;;;;;;;;;20.36;66.49;100469.19;5071779;28;19982;-79
2022/08/26 07:27:02;;;;;;;;;;;;;;;20.53;69.71;100460.47;5072515;28;19981;-80
2022/08/26 07:30:06;;;;;;;;;;;;;;;20.65;72.21;100463.78;5071965;28;19943;-80
2022/08/26 07:33:09;;;;;;;;;;;;;;;20.86;72.08;100459.03;5071612;28;20047;-80
2022/08/26 07:36:13;;;;;;;;;;;;;;;21.03;72.60;100468.06;5071051;28;19943;-79
2022/08/26 07:39:17;;;;;;;;;;;;;;;21.25;71.75;100463.28;5071001;28;19927;-78
2022/08/26 07:42:20;;;;;;;;;;;;;;;21.42;71.52;100467.81;5082225;28;19942;-80
2022/08/26 07:45:24;;;;;;;;;;;;;;;21.40;71.59;100460.97;5070574;28;19967;-80
2022/08/26 07:48:27;;;;;;;;;;;;;;;21.75;70.16;100465.44;5071109;28;19966;-80
2022/08/26 07:51:31;;;;;;;;;;;;;;;21.84;70.04;100469.84;5071044;28;20488;-81
2022/08/26 07:54:36;;;;;;;;;;;;;;;22.05;68.93;100467.69;5069640;28;19924;-80
2022/08/26 07:57:39;;;;;;;;;;;;;;;22.18;69.49;100466.47;5068899;28;20438;-81
2022/08/26 08:00:42;;;;;;;;;;;;;;;22.08;68.84;100463.03;5070712;28;19924;-81
2022/08/26 08:03:46;;;;;;;;;;;;;;;22.25;68.72;100456.84;5070103;28;20007;-80
2022/08/26 08:06:50;;;;;;;;;;;;;;;22.27;67.73;100454.84;5071034;28;19942;-80
2022/08/26 08:09:55;;;;;;;;;;;;;;;22.43;67.35;100452.31;5070523;28;20550;-81
2022/08/26 08:12:58;;;;;;;;;;;;;;;22.48;67.76;100460.63;5089763;28;19927;-82
2022/08/26 08:16:03;;;;;;;;;;;;;;;22.44;67.23;100461.94;5090501;28;20415;-82
2022/08/26 08:19:08;;;;;;;;;;;;;;;22.50;66.99;100450.66;5090449;28;20554;-79
2022/08/26 08:22:11;;;;;;;;;;;;;;;22.46;67.39;100454.66;5090373;28;19995;-79
2022/08/26 08:25:14;;;;;;;;;;;;;;;22.64;66.93;100454.53;5090654;28;19965;-81
2022/08/26 08:28:18;;;;;;;;;;;;;;;22.72;66.48;100453.75;5090772;28;19931;-80
2022/08/26 08:31:26;;;;;;;;;;;;;;;22.81;66.41;100451.94;5090124;28;20025;-79
2022/08/26 08:34:29;;;;;;;;;;;;;;;22.70;66.48;100466.41;5090230;28;20011;-79
2022/08/26 08:37:33;;;;;;;;;;;;;;;22.77;66.35;100458.59;5090260;28;20291;-79
2022/08/26 08:40:38;;;;;;;;;;;;;;;22.94;65.31;100453.22;5090319;28;20027;-79
2022/08/26 08:43:45;;;;;;;;;;;;;;;23.05;64.60;100456.56;5090338;28;19938;-79
2022/08/26 08:46:54;;;;;;;;;;;;;;;22.91;66.16;100464.16;5090365;28;19923;-78
2022/08/26 08:50:00;;;;;;;;;;;;;;;22.64;66.96;100453.72;5090352;28;19923;-79
2022/08/26 08:53:10;;;;;;;;;;;;;;;22.62;67.23;100445.91;5090561;28;19978;-78
2022/08/26 08:56:27;;;;;;;;;;;;;;;22.69;66.95;100443.44;5090016;28;19927;-78
2022/08/26 08:59:32;;;;;;;;;;;;;;;22.69;66.58;100444.25;5089949;28;19982;-77
2022/08/26 09:02:41;;;;;;;;;;;;;;;22.68;67.00;100444.41;5090229;28;19958;-79
2022/08/26 09:05:50;;;;;;;;;;;;;;;22.74;67.15;100441.09;5089719;28;19965;-79
2022/08/26 09:08:54;;;;;;;;;;;;;;;23.04;66.56;100447.72;5089943;28;20323;-79
2022/08/26 09:11:59;;;;;;;;;;;;;;;23.09;66.17;100447.22;5089960;28;20015;-82
2022/08/26 09:15:02;;;;;;;;;;;;;;;23.20;65.72;100446.94;5090063;28;20027;-82
2022/08/26 09:18:29;;;;;;;;;;;;;;;23.24;64.87;100437.59;5089881;28;19942;-83
2022/08/26 09:21:32;;;;;;;;;;;;;;;23.40;64.33;100434.94;5089433;28;19923;-83
2022/08/26 09:24:38;;;;;;;;;;;;;;;23.49;64.95;100434.97;5089874;28;20462;-85
2022/08/26 09:27:43;;;;;;;;;;;;;;;23.46;64.42;100436.13;5089787;28;19923;-85
2022/08/26 09:30:57;;;;;;;;;;;;;;;23.46;64.23;100428.13;5090339;28;20391;-84
2022/08/26 09:34:20;;;;;;;;;;;;;;;23.65;63.39;100429.63;5088848;28;20327;-87
2022/08/26 09:37:35;;;;;;;;;;;;;;;23.61;62.59;100420.25;5089811;28;19974;-86
2022/08/26 09:40:38;;;;;;;;;;;;;;;23.64;62.93;100425.25;5090002;28;19923;-86
2022/08/26 09:43:48;;;;;;;;;;;;;;;23.78;63.17;100427.31;5089519;28;19923;-86
2022/08/26 09:46:58;;;;;;;;;;;;;;;23.69;62.34;100420.28;5089087;28;20407;-84
2022/08/26 09:50:21;;;;;;;;;;;;;;;23.84;62.91;100418.63;5089475;28;19922;-85
2022/08/26 09:53:44;;;;;;;;;;;;;;;23.93;62.33;100411.44;5089454;28;19923;-83
2022/08/26 09:56:48;;;;;;;;;;;;;;;24.13;61.37;100406.53;5089337;28;19927;-83
2022/08/26 09:59:50;;;;;;;;;;;;;;;24.27;61.24;100411.16;5089041;28;19965;-84
2022/08/26 10:03:26;;;;;;;;;;;;;;;24.34;59.91;100403.28;5089237;28;19923;-85
2022/08/26 10:06:29;;;;;;;;;;;;;;;24.35;60.51;100395.13;5086572;28;20334;-83
2022/08/26 10:09:36;;;;;;;;;;;;;;;24.52;59.90;100389.72;5092229;28;20647;-82
2022/08/26 10:12:45;;;;;;;;;;;;;;;24.60;59.67;100389.69;5094299;28;19923;-82
2022/08/26 10:16:00;;;;;;;;;;;;;;;24.55;59.70;100382.19;5093255;28;20335;-82
2022/08/26 10:19:10;;;;;;;;;;;;;;;24.70;58.08;100379.63;5093707;28;19996;-82
2022/08/26 10:22:19;;;;;;;;;;;;;;;24.86;58.30;100381.38;5092730;28;19923;-83
2022/08/26 10:25:26;;;;;;;;;;;;;;;24.72;57.65;100376.75;5090742;28;19923;-81
2022/08/26 10:28:57;;;;;;;;;;;;;;;24.80;57.72;100372.19;5090310;28;19974;-83
2022/08/26 10:32:04;;;;;;;;;;;;;;;24.93;57.16;100360.91;5074129;28;20338;-83
2022/08/26 10:35:10;;;;;;;;;;;;;;;25.03;57.39;100361.50;5088292;28;19973;-85
2022/08/26 10:38:17;;;;;;;;;;;;;;;25.32;56.35;100353.81;5090575;28;20073;-80
2022/08/26 10:41:23;;;;;;;;;;;;;;;25.28;56.47;100346.13;5091855;28;20407;-82
2022/08/26 10:44:27;;;;;;;;;;;;;;;25.26;56.51;100332.09;5091774;28;20331;-78
2022/08/26 10:47:36;;;;;;;;;;;;;;;25.56;56.80;100339.34;5092525;28;19923;-80
2022/08/26 10:50:40;;;;;;;;;;;;;;;25.57;55.73;100333.84;5092444;28;20432;-79
2022/08/26 10:53:54;;;;;;;;;;;;;;;25.66;55.48;100330.06;5094671;28;20348;-82
2022/08/26 10:57:02;;;;;;;;;;;;;;;25.71;55.86;100338.34;5095360;28;19976;-83
2022/08/26 11:01:40;;;;;;;;;;;;;;;25.98;55.61;100328.06;5092617;28;19996;-81
2022/08/26 11:03:57;;;;;;;;;;;;;;;25.74;53.77;100335.31;5091057;28;19923;-84
2022/08/26 11:07:20;;;;;;;;;;;;;;;25.81;54.93;100327.41;5091281;28;20374;-85
2022/08/26 11:10:24;;;;;;;;;;;;;;;26.06;53.63;100324.44;5071635;28;20474;-82
2022/08/26 11:13:46;;;;;;;;;;;;;;;26.12;53.93;100321.88;5070997;28;20296;-85
2022/08/26 11:16:50;;;;;;;;;;;;;;;26.01;53.57;100327.72;5089337;28;19974;-84
2022/08/26 11:19:54;;;;;;;;;;;;;;;25.97;54.09;100321.88;5090936;28;19986;-83
2022/08/26 11:23:25;;;;;;;;;;;;;;;26.03;53.96;100317.63;5091391;28;19970;-83
2022/08/26 11:26:33;;;;;;;;;;;;;;;26.13;53.71;100306.59;5086096;28;19957;-81
2022/08/26 11:29:55;;;;;;;;;;;;;;;26.27;53.89;100311.13;5090793;28;19926;-82
2022/08/26 11:32:58;;;;;;;;;;;;;;;26.41;52.78;100301.38;5090744;28;20318;-83
2022/08/26 11:36:07;;;;;;;;;;;;;;;26.64;52.39;100303.94;5090810;28;19993;-81
2022/08/26 11:39:16;;;;;;;;;;;;;;;26.65;52.51;100300.25;5090853;28;19989;-83
2022/08/26 11:42:35;;;;;;;;;;;;;;;26.76;52.24;100304.28;5090967;28;19981;-82
2022/08/26 11:45:42;;;;;;;;;;;;;;;26.70;51.56;100295.13;5089871;28;19989;-83
2022/08/26 11:48:46;;;;;;;;;;;;;;;26.64;52.03;100295.88;5090581;28;20003;-83
2022/08/26 11:51:49;;;;;;;;;;;;;;;26.77;51.09;100295.19;5092118;28;20295;-82
2022/08/26 11:55:01;;;;;;;;;;;;;;;26.76;51.46;100293.53;5090807;28;20464;-82
2022/08/26 11:58:06;;;;;;;;;;;;;;;26.85;51.04;100292.38;5088914;28;19930;-84
2022/08/26 12:01:12;;;;;;;;;;;;;;;26.98;50.50;100303.25;5090502;28;19966;-84
2022/08/26 12:04:28;;;;;;;;;;;;;;;27.06;50.41;100289.69;5065778;28;19927;-84
2022/08/26 12:07:32;;;;;;;;;;;;;;;26.97;50.54;100304.28;5091559;28;20484;-85
2022/08/26 12:10:35;;;;;;;;;;;;;;;27.02;50.31;100299.13;5090660;28;19927;-82
2022/08/26 12:13:39;;;;;;;;;;;;;;;27.16;50.16;100284.03;5089895;28;19923;-84
2022/08/26 12:16:42;;;;;;;;;;;;;;;27.10;49.64;100282.91;5090968;28;19961;-85
2022/08/26 12:19:46;;;;;;;;;;;;;;;27.34;49.70;100267.44;5081051;28;20025;-82
2022/08/26 12:22:49;;;;;;;;;;;;;;;27.41;49.35;100275.53;5093799;28;20015;-83
2022/08/26 12:26:01;;;;;;;;;;;;;;;27.42;49.80;100271.84;5093972;28;19923;-77
2022/08/26 12:29:33;;;;;;;;;;;;;;;27.35;49.49;100271.78;5093885;28;19923;-84
2022/08/26 12:32:38;;;;;;;;;;;;;;;27.26;49.85;100278.31;5094022;28;20351;-83
2022/08/26 12:35:42;;;;;;;;;;;;;;;27.31;49.80;100275.88;5093741;28;19969;-83
2022/08/26 12:38:45;;;;;;;;;;;;;;;27.47;49.37;100269.38;5093873;28;19953;-84
2022/08/26 12:41:50;;;;;;;;;;;;;;;27.00;49.96;100287.78;5092911;28;20300;-83
2022/08/26 12:45:03;;;;;;;;;;;;;;;27.46;49.11;100284.66;5092800;28;19927;-87
2022/08/26 12:48:09;;;;;;;;;;;;;;;27.78;48.44;100283.22;5093712;28;19969;-82
2022/08/26 12:51:18;;;;;;;;;;;;;;;27.69;48.53;100291.63;5093701;28;19958;-80
2022/08/26 12:54:57;;;;;;;;;;;;;;;27.97;47.50;100284.34;5093550;28;19922;-82
2022/08/26 12:57:44;;;;;;;;;;;;;;;28.17;47.36;100291.66;5093225;28;20093;-84
2022/08/26 13:00:59;;;;;;;;;;;;;;;28.37;46.70;100287.22;5093516;28;19964;-82
2022/08/26 13:04:02;;;;;;;;;;;;;;;28.72;45.71;100279.03;5092898;28;20382;-81
2022/08/26 13:07:18;;;;;;;;;;;;;;;29.03;45.16;100285.72;5092703;28;20014;-82
2022/08/26 13:10:34;;;;;;;;;;;;;;;29.46;44.00;100278.03;5081020;28;19941;-84
2022/08/26 13:13:37;;;;;;;;;;;;;;;29.84;43.61;100278.16;5093168;28;20341;-85
2022/08/26 13:16:44;;;;;;;;;;;;;;;32.58;37.76;100282.91;5092579;28;19942;-84
2022/08/26 13:19:48;;;;;;;;;;;;;;;36.88;30.84;100274.97;5093345;28;19931;-84
2022/08/26 13:22:50;;;;;;;;;;;;;;;35.03;31.88;100269.19;5093381;28;19978;-83
2022/08/26 13:25:53;;;;;;;;;;;;;;;32.55;35.51;100278.81;5093002;28;20004;-76
2022/08/26 13:28:58;;;;;;;;;;;;;;;35.12;32.20;100269.59;5093002;28;19966;-83
2022/08/26 13:32:02;;;;;;;;;;;;;;;36.80;29.01;100267.31;5093299;28;19923;-85
2022/08/26 13:35:05;;;;;;;;;;;;;;;38.63;27.23;100255.63;5093193;28;19930;-85
2022/08/26 13:38:13;;;;;;;;;;;;;;;37.08;28.50;100252.53;5092889;28;19928;-84
2022/08/26 13:41:20;;;;;;;;;;;;;;;34.16;32.82;100283.91;5092919;28;19938;-84
2022/08/26 13:44:23;;;;;;;;;;;;;;;33.78;33.78;100265.47;5092383;28;19939;-84
2022/08/26 13:47:26;;;;;;;;;;;;;;;34.20;32.81;100257.91;5092824;28;19977;-85
2022/08/26 13:50:30;;;;;;;;;;;;;;;37.84;27.59;100255.66;5093181;28;19923;-86
2022/08/26 13:53:33;;;;;;;;;;;;;;;34.31;32.85;100261.66;5093012;28;19923;-85
2022/08/26 13:56:38;;;;;;;;;;;;;;;35.07;32.07;100261.34;5092093;28;19927;-85
2022/08/26 13:59:41;;;;;;;;;;;;;;;33.40;34.18;100269.50;5092769;28;19923;-84
2022/08/26 14:02:45;;;;;;;;;;;;;;;33.22;34.61;100270.47;5092942;28;20421;-85
2022/08/26 14:05:48;;;;;;;;;;;;;;;34.58;32.10;100274.66;5089178;28;19961;-84
2022/08/26 14:08:51;;;;;;;;;;;;;;;35.43;31.20;100253.75;5086247;28;19923;-84
2022/08/26 14:11:54;;;;;;;;;;;;;;;38.26;26.69;100257.47;5097086;28;19922;-85
2022/08/26 14:14:58;;;;;;;;;;;;;;;36.12;29.81;100272.31;5092370;28;19942;-84
2022/08/26 14:18:02;;;;;;;;;;;;;;;33.02;34.70;100284.31;5112826;28;19985;-84
2022/08/26 14:21:05;;;;;;;;;;;;;;;33.61;33.29;100280.84;5072534;28;19923;-83
2022/08/26 14:24:09;;;;;;;;;;;;;;;30.69;38.32;100283.34;5072301;28;19970;-83
2022/08/26 14:27:12;;;;;;;;;;;;;;;32.63;35.42;100283.06;5072515;28;19943;-85
2022/08/26 14:30:15;;;;;;;;;;;;;;;30.60;39.27;100298.19;5072416;28;20612;-84
2022/08/26 14:33:22;;;;;;;;;;;;;;;31.50;37.69;100290.63;5072811;28;19924;-84
2022/08/26 14:36:30;;;;;;;;;;;;;;;30.97;38.83;100306.44;5085208;28;19947;-85
2022/08/26 14:39:33;;;;;;;;;;;;;;;31.96;37.01;100292.03;5112725;28;19931;-84
2022/08/26 14:42:37;;;;;;;;;;;;;;;34.12;33.20;100290.06;5112747;28;19968;-84
2022/08/26 14:45:42;;;;;;;;;;;;;;;34.07;33.07;100289.94;5112644;28;19922;-84
2022/08/26 14:48:45;;;;;;;;;;;;;;;32.65;35.37;100289.88;5112584;28;19942;-84
2022/08/26 14:51:49;;;;;;;;;;;;;;;32.65;35.46;100303.41;5112474;28;19968;-84
2022/08/26 14:54:51;;;;;;;;;;;;;;;31.23;38.21;100287.31;5112697;28;19922;-83
2022/08/26 14:57:55;;;;;;;;;;;;;;;30.65;39.31;100281.31;5116139;28;19954;-84
2022/08/26 15:00:59;;;;;;;;;;;;;;;30.33;39.73;100276.72;5116402;28;20469;-82
2022/08/26 15:04:02;;;;;;;;;;;;;;;29.99;40.22;100269.78;5116489;28;19923;-83
2022/08/26 15:07:06;;;;;;;;;;;;;;;29.03;42.32;100285.72;5116608;28;19927;-84
2022/08/26 15:10:12;;;;;;;;;;;;;;;29.68;41.20;100278.63;5117111;28;19995;-82
2022/08/26 15:13:15;;;;;;;;;;;;;;;29.34;41.95;100287.78;5103560;28;19922;-84
2022/08/26 15:16:19;;;;;;;;;;;;;;;29.63;41.99;100290.03;5115855;28;19946;-82
2022/08/26 15:19:25;;;;;;;;;;;;;;;29.00;42.64;100296.84;5075197;28;19942;-85
2022/08/26 15:22:28;;;;;;;;;;;;;;;27.49;46.01;100305.75;5074944;28;20329;-83
2022/08/26 15:25:32;;;;;;;;;;;;;;;26.92;47.68;100312.06;5074973;28;20434;-85
2022/08/26 15:28:37;;;;;;;;;;;;;;;26.82;47.79;100316.91;5074927;28;19924;-81
2022/08/26 15:31:40;;;;;;;;;;;;;;;26.44;49.53;100322.47;5086147;28;20057;-84
2022/08/26 15:34:44;;;;;;;;;;;;;;;26.14;50.21;100325.19;5094857;28;19931;-83
2022/08/26 15:37:47;;;;;;;;;;;;;;;25.57;52.18;100336.50;5095309;28;19942;-83
2022/08/26 15:40:51;;;;;;;;;;;;;;;25.78;51.51;100329.59;5095415;28;19923;-83
2022/08/26 15:43:54;;;;;;;;;;;;;;;25.48;52.42;100329.56;5094823;28;20019;-83
2022/08/26 15:46:58;;;;;;;;;;;;;;;25.46;52.32;100335.13;5089323;28;19928;-83
2022/08/26 15:50:01;;;;;;;;;;;;;;;25.03;53.55;100333.94;5087124;28;19942;-82
2022/08/26 15:53:05;;;;;;;;;;;;;;;24.76;54.07;100325.44;5115634;28;19926;-83
2022/08/26 15:56:10;;;;;;;;;;;;;;;25.07;53.23;100329.88;5115396;28;19938;-81
2022/08/26 15:59:14;;;;;;;;;;;;;;;25.21;53.02;100325.66;5114292;28;19923;-82
2022/08/26 16:02:17;;;;;;;;;;;;;;;25.01;53.69;100315.38;5090043;28;20330;-76